sensor_id;sensor_type;location;lat;lon;timestamp;pressure;altitude;pressure_sealevel;temperature;humidity
20860;BME280;10590;48.154;11.514;2023-03-16T00:02:47;96071.50;;;1.82;79.79
20860;BME280;10590;48.154;11.514;2023-03-16T00:07:48;96063.75;;;1.49;81.79
20860;BME280;10590;48.154;11.514;2023-03-16T00:12:50;96059.19;;;1.88;80.76
20860;BME280;10590;48.154;11.514;2023-03-16T00:17:54;96055.22;;;1.85;80.26
20860;BME280;10590;48.154;11.514;2023-03-16T00:22:55;96036.53;;;1.60;80.70
20860;BME280;10590;48.154;11.514;2023-03-16T00:27:57;96057.53;;;0.89;83.73
20860;BME280;10590;48.154;11.514;2023-03-16T00:33:00;96068.59;;;1.57;80.95
20860;BME280;10590;48.154;11.514;2023-03-16T00:38:03;96052.81;;;1.57;80.66
20860;BME280;10590;48.154;11.514;2023-03-16T00:43:05;96051.19;;;1.07;82.09
20860;BME280;10590;48.154;11.514;2023-03-16T00:48:08;96052.63;;;0.59;84.49
20860;BME280;10590;48.154;11.514;2023-03-16T00:53:10;96070.38;;;0.52;85.33
20860;BME280;10590;48.154;11.514;2023-03-16T00:58:12;96059.41;;;0.39;85.61
20860;BME280;10590;48.154;11.514;2023-03-16T01:03:15;96060.53;;;0.09;87.03
20860;BME280;10590;48.154;11.514;2023-03-16T01:08:17;96046.44;;;-0.02;87.43
20860;BME280;10590;48.154;11.514;2023-03-16T01:13:18;96056.50;;;0.74;85.27
20860;BME280;10590;48.154;11.514;2023-03-16T01:18:22;96056.56;;;1.17;83.79
20860;BME280;10590;48.154;11.514;2023-03-16T01:23:23;96051.69;;;1.04;81.96
20860;BME280;10590;48.154;11.514;2023-03-16T01:28:26;96051.59;;;0.60;84.53
20860;BME280;10590;48.154;11.514;2023-03-16T01:33:29;96057.00;;;-0.13;87.04
20860;BME280;10590;48.154;11.514;2023-03-16T01:38:31;96059.63;;;-0.13;87.32
20860;BME280;10590;48.154;11.514;2023-03-16T01:43:35;96044.00;;;0.25;85.68
20860;BME280;10590;48.154;11.514;2023-03-16T01:48:42;96037.94;;;-0.09;86.38
20860;BME280;10590;48.154;11.514;2023-03-16T01:53:46;96036.00;;;-0.13;86.82
20860;BME280;10590;48.154;11.514;2023-03-16T01:58:49;96034.22;;;0.04;85.84
20860;BME280;10590;48.154;11.514;2023-03-16T02:03:59;96037.09;;;-0.43;88.41
20860;BME280;10590;48.154;11.514;2023-03-16T02:09:04;96036.53;;;-0.45;88.75
20860;BME280;10590;48.154;11.514;2023-03-16T02:14:09;96032.81;;;-0.32;88.25
20860;BME280;10590;48.154;11.514;2023-03-16T02:19:18;96034.09;;;-0.18;86.90
20860;BME280;10590;48.154;11.514;2023-03-16T02:24:20;96041.19;;;-0.02;86.18
20860;BME280;10590;48.154;11.514;2023-03-16T02:35:04;96042.44;;;-0.21;85.92
20860;BME280;10590;48.154;11.514;2023-03-16T02:40:20;96031.66;;;-0.08;85.42
20860;BME280;10590;48.154;11.514;2023-03-16T02:45:23;96025.19;;;-0.17;85.80
20860;BME280;10590;48.154;11.514;2023-03-16T02:50:29;96036.78;;;-0.29;87.77
20860;BME280;10590;48.154;11.514;2023-03-16T02:55:31;96041.03;;;-0.57;88.36
20860;BME280;10590;48.154;11.514;2023-03-16T03:00:32;96028.44;;;-0.72;88.11
20860;BME280;10590;48.154;11.514;2023-03-16T03:05:36;96028.84;;;-0.35;87.64
20860;BME280;10590;48.154;11.514;2023-03-16T03:10:38;96027.53;;;-0.49;87.76
20860;BME280;10590;48.154;11.514;2023-03-16T03:15:39;96021.22;;;-0.19;86.61
20860;BME280;10590;48.154;11.514;2023-03-16T03:20:42;96028.00;;;-0.07;85.96
20860;BME280;10590;48.154;11.514;2023-03-16T03:25:44;96023.41;;;0.34;84.60
20860;BME280;10590;48.154;11.514;2023-03-16T03:30:47;96025.63;;;0.42;84.77
20860;BME280;10590;48.154;11.514;2023-03-16T03:35:54;96025.22;;;0.34;84.78
20860;BME280;10590;48.154;11.514;2023-03-16T03:40:56;96018.69;;;0.36;84.49
20860;BME280;10590;48.154;11.514;2023-03-16T03:46:01;96018.50;;;0.59;83.98
20860;BME280;10590;48.154;11.514;2023-03-16T03:51:05;96015.63;;;0.61;83.63
20860;BME280;10590;48.154;11.514;2023-03-16T03:56:07;96021.69;;;0.61;82.31
20860;BME280;10590;48.154;11.514;2023-03-16T04:01:08;96008.28;;;0.41;84.22
20860;BME280;10590;48.154;11.514;2023-03-16T04:06:11;96014.88;;;0.44;83.41
20860;BME280;10590;48.154;11.514;2023-03-16T04:11:13;96016.47;;;-0.22;85.73
20860;BME280;10590;48.154;11.514;2023-03-16T04:16:15;96000.56;;;-0.16;85.33
20860;BME280;10590;48.154;11.514;2023-03-16T04:21:18;96007.31;;;-0.20;85.64
20860;BME280;10590;48.154;11.514;2023-03-16T04:26:20;96018.81;;;0.08;84.67
20860;BME280;10590;48.154;11.514;2023-03-16T04:31:22;96020.00;;;0.17;83.82
20860;BME280;10590;48.154;11.514;2023-03-16T04:36:25;96029.66;;;-0.17;85.34
20860;BME280;10590;48.154;11.514;2023-03-16T04:41:26;96021.72;;;-0.06;84.40
20860;BME280;10590;48.154;11.514;2023-03-16T04:46:28;96016.13;;;-0.43;85.34
20860;BME280;10590;48.154;11.514;2023-03-16T04:51:31;96008.09;;;-0.36;86.20
20860;BME280;10590;48.154;11.514;2023-03-16T04:56:32;96007.41;;;-0.15;85.24
20860;BME280;10590;48.154;11.514;2023-03-16T05:01:34;96010.03;;;-0.15;84.65
20860;BME280;10590;48.154;11.514;2023-03-16T05:06:38;95992.16;;;-0.01;84.54
20860;BME280;10590;48.154;11.514;2023-03-16T05:11:40;95972.75;;;-0.17;84.35
20860;BME280;10590;48.154;11.514;2023-03-16T05:16:42;95973.94;;;-0.08;84.50
20860;BME280;10590;48.154;11.514;2023-03-16T05:21:45;95984.22;;;0.11;84.58
20860;BME280;10590;48.154;11.514;2023-03-16T05:26:46;95972.75;;;-0.17;84.96
20860;BME280;10590;48.154;11.514;2023-03-16T05:31:48;95963.94;;;-0.44;85.29
20860;BME280;10590;48.154;11.514;2023-03-16T05:36:51;95973.94;;;-0.08;84.12
20860;BME280;10590;48.154;11.514;2023-03-16T05:41:53;95979.19;;;-0.08;84.69
20860;BME280;10590;48.154;11.514;2023-03-16T05:46:55;95972.88;;;0.44;83.33
20860;BME280;10590;48.154;11.514;2023-03-16T05:51:58;95977.69;;;0.30;83.16
20860;BME280;10590;48.154;11.514;2023-03-16T05:56:59;95977.28;;;0.60;81.60
20860;BME280;10590;48.154;11.514;2023-03-16T06:02:01;95984.16;;;0.44;82.99
20860;BME280;10590;48.154;11.514;2023-03-16T06:07:04;95973.53;;;0.94;80.78
20860;BME280;10590;48.154;11.514;2023-03-16T06:12:06;95973.91;;;1.84;75.78
20860;BME280;10590;48.154;11.514;2023-03-16T06:17:08;95973.13;;;2.63;73.63
20860;BME280;10590;48.154;11.514;2023-03-16T06:22:11;95987.22;;;3.87;68.21
20860;BME280;10590;48.154;11.514;2023-03-16T06:27:13;95965.56;;;3.64;68.09
20860;BME280;10590;48.154;11.514;2023-03-16T06:32:15;95990.75;;;3.14;69.56
20860;BME280;10590;48.154;11.514;2023-03-16T06:37:18;95985.56;;;4.72;65.31
20860;BME280;10590;48.154;11.514;2023-03-16T06:42:21;95972.50;;;5.01;63.48
20860;BME280;10590;48.154;11.514;2023-03-16T06:47:23;95987.72;;;4.50;65.24
20860;BME280;10590;48.154;11.514;2023-03-16T06:52:25;95977.84;;;4.86;63.96
20860;BME280;10590;48.154;11.514;2023-03-16T06:57:27;95981.38;;;5.80;61.18
20860;BME280;10590;48.154;11.514;2023-03-16T07:02:29;95987.78;;;5.68;60.85
20860;BME280;10590;48.154;11.514;2023-03-16T07:07:32;95987.38;;;2.67;69.86
20860;BME280;10590;48.154;11.514;2023-03-16T07:12:34;95988.16;;;2.67;70.91
20860;BME280;10590;48.154;11.514;2023-03-16T07:17:36;95976.84;;;3.44;69.09
20860;BME280;10590;48.154;11.514;2023-03-16T07:22:39;95988.19;;;1.93;73.77
20860;BME280;10590;48.154;11.514;2023-03-16T07:27:41;95988.09;;;1.56;76.27
20860;BME280;10590;48.154;11.514;2023-03-16T07:32:44;95980.22;;;2.20;74.55
20860;BME280;10590;48.154;11.514;2023-03-16T07:37:47;95985.06;;;2.33;73.77
20860;BME280;10590;48.154;11.514;2023-03-16T07:42:49;95995.94;;;2.94;71.61
20860;BME280;10590;48.154;11.514;2023-03-16T07:47:51;96003.31;;;4.10;67.54
20860;BME280;10590;48.154;11.514;2023-03-16T07:52:54;96003.78;;;2.42;72.72
20860;BME280;10590;48.154;11.514;2023-03-16T07:57:55;96010.44;;;3.84;67.69
20860;BME280;10590;48.154;11.514;2023-03-16T08:02:57;96011.09;;;3.29;69.11
20860;BME280;10590;48.154;11.514;2023-03-16T08:08:00;96009.75;;;2.64;71.03
20860;BME280;10590;48.154;11.514;2023-03-16T08:13:02;96015.19;;;4.54;66.21
20860;BME280;10590;48.154;11.514;2023-03-16T08:18:05;96016.06;;;2.63;71.62
20860;BME280;10590;48.154;11.514;2023-03-16T08:23:08;96029.66;;;2.92;71.77
20860;BME280;10590;48.154;11.514;2023-03-16T08:28:11;96022.00;;;6.04;61.49
20860;BME280;10590;48.154;11.514;2023-03-16T08:33:13;96031.41;;;5.32;62.28
20860;BME280;10590;48.154;11.514;2023-03-16T08:38:15;96025.03;;;6.84;56.86
20860;BME280;10590;48.154;11.514;2023-03-16T08:43:18;96019.84;;;7.03;56.09
20860;BME280;10590;48.154;11.514;2023-03-16T08:48:20;96021.00;;;9.26;49.79
20860;BME280;10590;48.154;11.514;2023-03-16T08:53:23;96013.00;;;6.68;56.54
20860;BME280;10590;48.154;11.514;2023-03-16T08:58:24;96017.53;;;4.80;63.89
20860;BME280;10590;48.154;11.514;2023-03-16T09:03:28;96005.19;;;6.53;59.35
20860;BME280;10590;48.154;11.514;2023-03-16T09:08:32;96001.25;;;8.72;51.27
20860;BME280;10590;48.154;11.514;2023-03-16T09:13:34;96008.09;;;8.59;50.68
20860;BME280;10590;48.154;11.514;2023-03-16T09:18:38;96001.75;;;8.74;51.26
20860;BME280;10590;48.154;11.514;2023-03-16T09:23:41;96010.94;;;8.96;51.03
20860;BME280;10590;48.154;11.514;2023-03-16T09:28:43;96011.13;;;9.54;49.31
20860;BME280;10590;48.154;11.514;2023-03-16T09:33:46;96016.84;;;9.06;49.89
20860;BME280;10590;48.154;11.514;2023-03-16T09:38:49;96018.63;;;7.81;58.09
20860;BME280;10590;48.154;11.514;2023-03-16T09:43:59;96015.66;;;9.67;48.16
20860;BME280;10590;48.154;11.514;2023-03-16T09:49:04;96017.91;;;7.32;53.85
20860;BME280;10590;48.154;11.514;2023-03-16T09:54:16;96019.16;;;7.59;53.23
20860;BME280;10590;48.154;11.514;2023-03-16T09:59:18;96015.00;;;7.72;53.57
20860;BME280;10590;48.154;11.514;2023-03-16T10:04:36;96005.06;;;6.92;53.86
20860;BME280;10590;48.154;11.514;2023-03-16T10:09:46;95983.81;;;6.97;55.10
20860;BME280;10590;48.154;11.514;2023-03-16T10:14:53;95997.16;;;8.28;50.59
20860;BME280;10590;48.154;11.514;2023-03-16T10:20:00;95993.88;;;8.37;50.06
20860;BME280;10590;48.154;11.514;2023-03-16T10:25:08;95997.47;;;7.52;52.84
20860;BME280;10590;48.154;11.514;2023-03-16T10:30:20;95977.31;;;9.00;48.85
20860;BME280;10590;48.154;11.514;2023-03-16T10:35:41;95971.09;;;8.77;48.61
20860;BME280;10590;48.154;11.514;2023-03-16T10:40:51;95970.88;;;10.90;45.63
20860;BME280;10590;48.154;11.514;2023-03-16T10:45:57;95960.31;;;11.24;44.05
20860;BME280;10590;48.154;11.514;2023-03-16T10:51:04;95957.47;;;7.24;53.33
20860;BME280;10590;48.154;11.514;2023-03-16T10:56:10;95956.06;;;9.63;49.15
20860;BME280;10590;48.154;11.514;2023-03-16T11:01:17;95953.38;;;10.21;47.98
20860;BME280;10590;48.154;11.514;2023-03-16T11:06:21;95952.25;;;9.78;49.15
20860;BME280;10590;48.154;11.514;2023-03-16T11:11:28;95931.81;;;11.02;44.81
20860;BME280;10590;48.154;11.514;2023-03-16T11:16:36;95936.31;;;9.64;48.65
20860;BME280;10590;48.154;11.514;2023-03-16T11:21:43;95915.38;;;11.26;43.38
20860;BME280;10590;48.154;11.514;2023-03-16T11:26:54;95929.59;;;10.56;47.14
20860;BME280;10590;48.154;11.514;2023-03-16T11:31:59;95924.06;;;10.21;47.08
20860;BME280;10590;48.154;11.514;2023-03-16T11:37:11;95915.84;;;10.71;44.67
20860;BME280;10590;48.154;11.514;2023-03-16T11:42:22;95904.00;;;9.79;47.61
20860;BME280;10590;48.154;11.514;2023-03-16T11:47:47;95910.22;;;10.42;47.98
20860;BME280;10590;48.154;11.514;2023-03-16T11:52:57;95895.78;;;12.00;43.56
20860;BME280;10590;48.154;11.514;2023-03-16T11:58:18;95874.06;;;12.10;43.24
20860;BME280;10590;48.154;11.514;2023-03-16T12:03:51;95880.03;;;10.10;46.43
20860;BME280;10590;48.154;11.514;2023-03-16T12:09:21;95880.28;;;10.00;46.27
20860;BME280;10590;48.154;11.514;2023-03-16T12:14:33;95868.69;;;9.74;46.16
20860;BME280;10590;48.154;11.514;2023-03-16T12:19:40;95856.59;;;8.54;50.07
20860;BME280;10590;48.154;11.514;2023-03-16T12:24:44;95845.38;;;9.21;47.41
20860;BME280;10590;48.154;11.514;2023-03-16T12:29:55;95849.56;;;10.25;46.62
20860;BME280;10590;48.154;11.514;2023-03-16T12:35:07;95843.16;;;9.37;47.69
20860;BME280;10590;48.154;11.514;2023-03-16T12:40:24;95836.63;;;10.41;45.38
20860;BME280;10590;48.154;11.514;2023-03-16T12:45:34;95834.06;;;10.36;43.60
20860;BME280;10590;48.154;11.514;2023-03-16T12:50:47;95839.66;;;11.74;40.52
20860;BME280;10590;48.154;11.514;2023-03-16T12:55:49;95822.88;;;9.94;46.45
20860;BME280;10590;48.154;11.514;2023-03-16T13:00:57;95826.44;;;11.26;41.59
20860;BME280;10590;48.154;11.514;2023-03-16T13:05:59;95822.13;;;10.73;44.25
20860;BME280;10590;48.154;11.514;2023-03-16T13:11:04;95822.66;;;9.01;47.33
20860;BME280;10590;48.154;11.514;2023-03-16T13:16:08;95815.66;;;10.57;43.87
20860;BME280;10590;48.154;11.514;2023-03-16T13:21:17;95804.53;;;9.93;44.20
20860;BME280;10590;48.154;11.514;2023-03-16T13:26:24;95807.34;;;9.96;43.01
20860;BME280;10590;48.154;11.514;2023-03-16T13:31:35;95805.22;;;9.76;42.69
20860;BME280;10590;48.154;11.514;2023-03-16T13:36:38;95807.69;;;10.26;41.61
20860;BME280;10590;48.154;11.514;2023-03-16T13:41:40;95789.97;;;10.30;42.54
20860;BME280;10590;48.154;11.514;2023-03-16T13:46:46;95801.25;;;10.66;40.31
20860;BME280;10590;48.154;11.514;2023-03-16T13:51:48;95791.03;;;9.89;41.30
20860;BME280;10590;48.154;11.514;2023-03-16T13:56:51;95785.91;;;11.24;39.99
20860;BME280;10590;48.154;11.514;2023-03-16T14:01:56;95765.94;;;10.78;39.07
20860;BME280;10590;48.154;11.514;2023-03-16T14:07:00;95778.50;;;10.77;39.51
20860;BME280;10590;48.154;11.514;2023-03-16T14:12:03;95775.69;;;10.26;40.47
20860;BME280;10590;48.154;11.514;2023-03-16T14:17:10;95769.22;;;9.87;40.85
20860;BME280;10590;48.154;11.514;2023-03-16T14:22:13;95774.50;;;10.40;39.62
20860;BME280;10590;48.154;11.514;2023-03-16T14:27:18;95767.78;;;9.81;42.04
20860;BME280;10590;48.154;11.514;2023-03-16T14:32:24;95783.38;;;11.53;38.80
20860;BME280;10590;48.154;11.514;2023-03-16T14:37:34;95771.25;;;11.82;36.57
20860;BME280;10590;48.154;11.514;2023-03-16T14:42:38;95759.44;;;11.74;38.57
20860;BME280;10590;48.154;11.514;2023-03-16T14:47:43;95757.94;;;11.21;38.38
20860;BME280;10590;48.154;11.514;2023-03-16T14:52:46;95755.69;;;9.52;41.83
20860;BME280;10590;48.154;11.514;2023-03-16T14:57:49;95734.28;;;9.35;40.39
20860;BME280;10590;48.154;11.514;2023-03-16T15:03:02;95756.97;;;10.65;38.98
20860;BME280;10590;48.154;11.514;2023-03-16T15:08:13;95757.38;;;9.04;41.66
20860;BME280;10590;48.154;11.514;2023-03-16T15:13:18;95755.44;;;9.40;42.40
20860;BME280;10590;48.154;11.514;2023-03-16T15:18:35;95739.59;;;8.90;43.61
20860;BME280;10590;48.154;11.514;2023-03-16T15:23:39;95750.66;;;8.84;42.77
20860;BME280;10590;48.154;11.514;2023-03-16T15:28:42;95746.84;;;8.62;42.73
20860;BME280;10590;48.154;11.514;2023-03-16T15:33:45;95743.69;;;8.74;43.30
20860;BME280;10590;48.154;11.514;2023-03-16T15:38:47;95722.53;;;8.91;42.70
20860;BME280;10590;48.154;11.514;2023-03-16T15:43:49;95733.22;;;8.78;43.03
20860;BME280;10590;48.154;11.514;2023-03-16T15:48:53;95727.94;;;8.64;42.23
20860;BME280;10590;48.154;11.514;2023-03-16T15:53:57;95715.78;;;8.85;41.87
20860;BME280;10590;48.154;11.514;2023-03-16T15:59:03;95710.88;;;8.65;42.56
20860;BME280;10590;48.154;11.514;2023-03-16T16:04:12;95698.13;;;8.40;43.85
20860;BME280;10590;48.154;11.514;2023-03-16T16:09:14;95694.44;;;8.63;44.06
20860;BME280;10590;48.154;11.514;2023-03-16T16:14:20;95695.84;;;8.47;44.39
20860;BME280;10590;48.154;11.514;2023-03-16T16:19:24;95692.63;;;8.36;44.87
20860;BME280;10590;48.154;11.514;2023-03-16T16:24:27;95692.41;;;8.32;45.34
20860;BME280;10590;48.154;11.514;2023-03-16T16:29:30;95706.91;;;8.26;46.02
20860;BME280;10590;48.154;11.514;2023-03-16T16:34:34;95715.78;;;8.08;46.57
20860;BME280;10590;48.154;11.514;2023-03-16T16:39:35;95718.91;;;8.24;46.73
20860;BME280;10590;48.154;11.514;2023-03-16T16:44:37;95706.94;;;7.85;46.73
20860;BME280;10590;48.154;11.514;2023-03-16T16:49:40;95730.53;;;8.01;45.93
20860;BME280;10590;48.154;11.514;2023-03-16T16:54:42;95735.25;;;7.90;47.37
20860;BME280;10590;48.154;11.514;2023-03-16T16:59:45;95726.38;;;7.67;47.20
20860;BME280;10590;48.154;11.514;2023-03-16T17:04:48;95717.13;;;7.64;47.87
20860;BME280;10590;48.154;11.514;2023-03-16T17:09:50;95739.03;;;7.56;48.94
20860;BME280;10590;48.154;11.514;2023-03-16T17:14:52;95731.22;;;7.32;49.80
20860;BME280;10590;48.154;11.514;2023-03-16T17:19:55;95733.38;;;7.30;50.39
20860;BME280;10590;48.154;11.514;2023-03-16T17:24:56;95737.19;;;7.24;50.37
20860;BME280;10590;48.154;11.514;2023-03-16T17:29:58;95742.97;;;7.13;51.17
20860;BME280;10590;48.154;11.514;2023-03-16T17:35:12;95743.25;;;6.92;51.19
20860;BME280;10590;48.154;11.514;2023-03-16T17:40:15;95740.66;;;6.87;52.01
20860;BME280;10590;48.154;11.514;2023-03-16T17:45:19;95736.59;;;6.76;52.30
20860;BME280;10590;48.154;11.514;2023-03-16T17:50:24;95734.50;;;6.73;52.98
20860;BME280;10590;48.154;11.514;2023-03-16T17:55:28;95737.75;;;6.70;52.57
20860;BME280;10590;48.154;11.514;2023-03-16T18:00:34;95737.25;;;6.68;52.63
20860;BME280;10590;48.154;11.514;2023-03-16T18:05:38;95734.22;;;6.56;52.97
20860;BME280;10590;48.154;11.514;2023-03-16T18:10:40;95735.38;;;6.50;53.04
20860;BME280;10590;48.154;11.514;2023-03-16T18:15:42;95736.59;;;6.38;52.83
20860;BME280;10590;48.154;11.514;2023-03-16T18:20:48;95721.53;;;6.34;53.02
20860;BME280;10590;48.154;11.514;2023-03-16T18:25:51;95738.81;;;6.31;52.95
20860;BME280;10590;48.154;11.514;2023-03-16T18:30:57;95736.31;;;6.40;52.86
20860;BME280;10590;48.154;11.514;2023-03-16T18:36:02;95740.50;;;6.22;53.56
20860;BME280;10590;48.154;11.514;2023-03-16T18:41:12;95726.69;;;6.01;53.95
20860;BME280;10590;48.154;11.514;2023-03-16T18:46:21;95728.47;;;6.11;53.64
20860;BME280;10590;48.154;11.514;2023-03-16T18:51:26;95717.91;;;6.06;53.87
20860;BME280;10590;48.154;11.514;2023-03-16T18:56:28;95718.03;;;5.96;53.96
20860;BME280;10590;48.154;11.514;2023-03-16T19:01:32;95721.09;;;6.03;54.11
20860;BME280;10590;48.154;11.514;2023-03-16T19:06:36;95722.03;;;5.93;54.31
20860;BME280;10590;48.154;11.514;2023-03-16T19:11:40;95722.69;;;6.04;54.21
20860;BME280;10590;48.154;11.514;2023-03-16T19:16:42;95725.47;;;5.89;54.63
20860;BME280;10590;48.154;11.514;2023-03-16T19:21:46;95718.50;;;5.74;55.31
20860;BME280;10590;48.154;11.514;2023-03-16T19:26:50;95724.44;;;5.90;54.63
20860;BME280;10590;48.154;11.514;2023-03-16T19:31:52;95722.91;;;5.84;54.86
20860;BME280;10590;48.154;11.514;2023-03-16T19:36:56;95723.78;;;5.74;55.64
20860;BME280;10590;48.154;11.514;2023-03-16T19:41:58;95716.69;;;5.46;56.65
20860;BME280;10590;48.154;11.514;2023-03-16T19:46:59;95719.56;;;5.49;55.79
20860;BME280;10590;48.154;11.514;2023-03-16T19:52:09;95704.00;;;5.42;56.16
20860;BME280;10590;48.154;11.514;2023-03-16T19:57:13;95718.72;;;5.25;57.07
20860;BME280;10590;48.154;11.514;2023-03-16T20:02:24;95718.00;;;5.14;57.60
20860;BME280;10590;48.154;11.514;2023-03-16T20:07:28;95711.81;;;5.29;57.44
20860;BME280;10590;48.154;11.514;2023-03-16T20:12:30;95712.84;;;5.33;57.90
20860;BME280;10590;48.154;11.514;2023-03-16T20:17:32;95704.66;;;5.58;56.70
20860;BME280;10590;48.154;11.514;2023-03-16T20:22:35;95696.75;;;4.95;58.28
20860;BME280;10590;48.154;11.514;2023-03-16T20:27:37;95693.69;;;5.12;57.81
20860;BME280;10590;48.154;11.514;2023-03-16T20:32:41;95687.19;;;4.99;58.63
20860;BME280;10590;48.154;11.514;2023-03-16T20:37:45;95682.97;;;4.98;58.27
20860;BME280;10590;48.154;11.514;2023-03-16T20:42:47;95686.03;;;5.10;58.69
20860;BME280;10590;48.154;11.514;2023-03-16T20:47:50;95681.47;;;4.87;59.00
20860;BME280;10590;48.154;11.514;2023-03-16T20:52:54;95675.63;;;4.90;58.97
20860;BME280;10590;48.154;11.514;2023-03-16T20:57:56;95685.53;;;5.08;58.68
20860;BME280;10590;48.154;11.514;2023-03-16T21:02:58;95667.78;;;4.80;59.19
20860;BME280;10590;48.154;11.514;2023-03-16T21:08:02;95678.63;;;4.78;59.58
20860;BME280;10590;48.154;11.514;2023-03-16T21:13:04;95678.88;;;4.82;59.61
20860;BME280;10590;48.154;11.514;2023-03-16T21:18:14;95679.72;;;4.77;60.56
20860;BME280;10590;48.154;11.514;2023-03-16T21:23:19;95676.91;;;4.98;59.80
20860;BME280;10590;48.154;11.514;2023-03-16T21:28:21;95670.00;;;4.68;60.06
20860;BME280;10590;48.154;11.514;2023-03-16T21:33:27;95675.38;;;4.58;60.87
20860;BME280;10590;48.154;11.514;2023-03-16T21:38:31;95662.75;;;4.50;61.03
20860;BME280;10590;48.154;11.514;2023-03-16T21:43:33;95657.78;;;4.43;61.17
20860;BME280;10590;48.154;11.514;2023-03-16T21:48:37;95652.78;;;4.36;61.80
20860;BME280;10590;48.154;11.514;2023-03-16T21:53:41;95647.75;;;4.40;61.90
20860;BME280;10590;48.154;11.514;2023-03-16T21:58:43;95648.56;;;4.30;62.29
20860;BME280;10590;48.154;11.514;2023-03-16T22:03:45;95644.38;;;4.24;62.70
20860;BME280;10590;48.154;11.514;2023-03-16T22:08:48;95647.38;;;4.12;63.14
20860;BME280;10590;48.154;11.514;2023-03-16T22:13:51;95654.63;;;4.41;62.48
20860;BME280;10590;48.154;11.514;2023-03-16T22:18:54;95652.03;;;4.26;62.87
20860;BME280;10590;48.154;11.514;2023-03-16T22:23:59;95624.44;;;4.08;62.66
20860;BME280;10590;48.154;11.514;2023-03-16T22:29:09;95649.13;;;4.27;62.63
20860;BME280;10590;48.154;11.514;2023-03-16T22:34:24;95644.53;;;3.99;64.17
20860;BME280;10590;48.154;11.514;2023-03-16T22:39:29;95654.41;;;4.27;63.02
20860;BME280;10590;48.154;11.514;2023-03-16T22:44:32;95646.13;;;4.00;63.91
20860;BME280;10590;48.154;11.514;2023-03-16T22:49:34;95644.16;;;3.71;64.73
20860;BME280;10590;48.154;11.514;2023-03-16T22:54:37;95641.41;;;3.92;64.16
20860;BME280;10590;48.154;11.514;2023-03-16T22:59:39;95642.31;;;3.72;64.70
20860;BME280;10590;48.154;11.514;2023-03-16T23:04:41;95638.84;;;3.76;64.70
20860;BME280;10590;48.154;11.514;2023-03-16T23:09:44;95635.25;;;3.57;65.08
20860;BME280;10590;48.154;11.514;2023-03-16T23:14:47;95640.47;;;3.67;65.04
20860;BME280;10590;48.154;11.514;2023-03-16T23:19:49;95636.78;;;3.68;65.21
20860;BME280;10590;48.154;11.514;2023-03-16T23:24:52;95627.88;;;3.54;65.88
20860;BME280;10590;48.154;11.514;2023-03-16T23:29:54;95611.53;;;3.42;66.19
20860;BME280;10590;48.154;11.514;2023-03-16T23:34:55;95619.19;;;3.48;65.83
20860;BME280;10590;48.154;11.514;2023-03-16T23:39:58;95616.59;;;3.28;66.64
20860;BME280;10590;48.154;11.514;2023-03-16T23:45:04;95612.91;;;3.29;66.77
20860;BME280;10590;48.154;11.514;2023-03-16T23:50:11;95620.59;;;3.10;67.46
20860;BME280;10590;48.154;11.514;2023-03-16T23:55:14;95611.06;;;3.25;66.96
